sensor_id;sensor_type;location;lat;lon;timestamp;pressure;altitude;pressure_sealevel;temperature;humidity
60871;BME280;46714;50.118;14.462;2023-11-19T00:02:20;99197.53;;;2.67;100.00
60871;BME280;46714;50.118;14.462;2023-11-19T00:04:45;99187.63;;;2.67;100.00
60871;BME280;46714;50.118;14.462;2023-11-19T00:07:11;99178.72;;;2.67;100.00
60871;BME280;46714;50.118;14.462;2023-11-19T00:09:38;99181.56;;;2.65;100.00
60871;BME280;46714;50.118;14.462;2023-11-19T00:12:04;99169.97;;;2.65;100.00
60871;BME280;46714;50.118;14.462;2023-11-19T00:14:30;99157.06;;;2.68;100.00
60871;BME280;46714;50.118;14.462;2023-11-19T00:16:55;99153.38;;;2.69;100.00
60871;BME280;46714;50.118;14.462;2023-11-19T00:19:21;99143.09;;;2.65;100.00
60871;BME280;46714;50.118;14.462;2023-11-19T00:21:46;99138.38;;;2.59;100.00
60871;BME280;46714;50.118;14.462;2023-11-19T00:24:12;99139.56;;;2.56;100.00
60871;BME280;46714;50.118;14.462;2023-11-19T00:26:38;99135.34;;;2.54;100.00
60871;BME280;46714;50.118;14.462;2023-11-19T00:29:03;99125.78;;;2.51;100.00
60871;BME280;46714;50.118;14.462;2023-11-19T00:31:29;99118.72;;;2.50;100.00
60871;BME280;46714;50.118;14.462;2023-11-19T00:33:55;99111.16;;;2.45;100.00
60871;BME280;46714;50.118;14.462;2023-11-19T00:36:20;99111.16;;;2.45;100.00
60871;BME280;46714;50.118;14.462;2023-11-19T00:38:46;99114.53;;;2.47;100.00
60871;BME280;46714;50.118;14.462;2023-11-19T00:41:11;99112.00;;;2.46;100.00
60871;BME280;46714;50.118;14.462;2023-11-19T00:43:36;99101.41;;;2.44;100.00
60871;BME280;46714;50.118;14.462;2023-11-19T00:46:02;99103.41;;;2.42;100.00
60871;BME280;46714;50.118;14.462;2023-11-19T00:48:29;99091.31;;;2.38;100.00
60871;BME280;46714;50.118;14.462;2023-11-19T00:50:54;99088.47;;;2.40;100.00
60871;BME280;46714;50.118;14.462;2023-11-19T00:53:20;99083.94;;;2.40;100.00
60871;BME280;46714;50.118;14.462;2023-11-19T00:55:45;99070.69;;;2.39;100.00
60871;BME280;46714;50.118;14.462;2023-11-19T00:58:10;99082.59;;;2.36;100.00
60871;BME280;46714;50.118;14.462;2023-11-19T01:00:36;99068.31;;;2.36;100.00
60871;BME280;46714;50.118;14.462;2023-11-19T01:03:01;99057.41;;;2.37;100.00
60871;BME280;46714;50.118;14.462;2023-11-19T01:05:26;99066.31;;;2.38;100.00
60871;BME280;46714;50.118;14.462;2023-11-19T01:07:53;99075.88;;;2.40;100.00
60871;BME280;46714;50.118;14.462;2023-11-19T01:10:19;99081.09;;;2.42;100.00
60871;BME280;46714;50.118;14.462;2023-11-19T01:12:44;99067.31;;;2.45;100.00
60871;BME280;46714;50.118;14.462;2023-11-19T01:15:10;99051.38;;;2.43;100.00
60871;BME280;46714;50.118;14.462;2023-11-19T01:17:38;99045.00;;;2.44;100.00
60871;BME280;46714;50.118;14.462;2023-11-19T01:20:04;99044.00;;;2.45;100.00
60871;BME280;46714;50.118;14.462;2023-11-19T01:22:31;99040.81;;;2.50;100.00
60871;BME280;46714;50.118;14.462;2023-11-19T01:24:56;99039.81;;;2.51;100.00
60871;BME280;46714;50.118;14.462;2023-11-19T01:27:23;99028.22;;;2.50;100.00
60871;BME280;46714;50.118;14.462;2023-11-19T01:29:49;99022.69;;;2.52;100.00
60871;BME280;46714;50.118;14.462;2023-11-19T01:32:14;99022.84;;;2.50;100.00
60871;BME280;46714;50.118;14.462;2023-11-19T01:34:40;99023.00;;;2.49;100.00
60871;BME280;46714;50.118;14.462;2023-11-19T01:37:06;99012.44;;;2.47;100.00
60871;BME280;46714;50.118;14.462;2023-11-19T01:39:31;98996.34;;;2.47;100.00
60871;BME280;46714;50.118;14.462;2023-11-19T01:41:56;98990.63;;;2.50;100.00
60871;BME280;46714;50.118;14.462;2023-11-19T01:44:22;98978.84;;;2.51;100.00
60871;BME280;46714;50.118;14.462;2023-11-19T01:46:47;98979.72;;;2.52;100.00
60871;BME280;46714;50.118;14.462;2023-11-19T01:49:17;98969.78;;;2.53;100.00
60871;BME280;46714;50.118;14.462;2023-11-19T01:51:44;98960.91;;;2.52;100.00
60871;BME280;46714;50.118;14.462;2023-11-19T01:54:11;98951.66;;;2.55;100.00
60871;BME280;46714;50.118;14.462;2023-11-19T01:56:38;98956.69;;;2.58;100.00
60871;BME280;46714;50.118;14.462;2023-11-19T01:59:05;98957.53;;;2.58;100.00
60871;BME280;46714;50.118;14.462;2023-11-19T02:01:32;98969.78;;;2.61;100.00
60871;BME280;46714;50.118;14.462;2023-11-19T02:04:02;98962.56;;;2.61;100.00
60871;BME280;46714;50.118;14.462;2023-11-19T02:06:29;98966.09;;;2.62;100.00
60871;BME280;46714;50.118;14.462;2023-11-19T02:08:57;98959.03;;;2.61;100.00
60871;BME280;46714;50.118;14.462;2023-11-19T02:11:23;98942.59;;;2.64;100.00
60871;BME280;46714;50.118;14.462;2023-11-19T02:13:54;98939.03;;;2.63;100.00
60871;BME280;46714;50.118;14.462;2023-11-19T02:16:19;98927.47;;;2.63;100.00
60871;BME280;46714;50.118;14.462;2023-11-19T02:18:44;98918.22;;;2.65;100.00
60871;BME280;46714;50.118;14.462;2023-11-19T02:21:10;98910.66;;;2.69;100.00
60871;BME280;46714;50.118;14.462;2023-11-19T02:23:35;98896.19;;;2.70;100.00
60871;BME280;46714;50.118;14.462;2023-11-19T02:28:46;98903.59;;;2.68;100.00
60871;BME280;46714;50.118;14.462;2023-11-19T02:31:12;98906.13;;;2.69;100.00
60871;BME280;46714;50.118;14.462;2023-11-19T02:33:37;98898.06;;;2.69;100.00
60871;BME280;46714;50.118;14.462;2023-11-19T02:36:04;98904.09;;;2.71;100.00
60871;BME280;46714;50.118;14.462;2023-11-19T02:38:31;98900.59;;;2.71;100.00
60871;BME280;46714;50.118;14.462;2023-11-19T02:40:57;98895.88;;;2.73;100.00
60871;BME280;46714;50.118;14.462;2023-11-19T02:43:23;98899.25;;;2.75;100.00
60871;BME280;46714;50.118;14.462;2023-11-19T02:45:48;98894.50;;;2.77;100.00
60871;BME280;46714;50.118;14.462;2023-11-19T02:48:15;98903.25;;;2.79;100.00
60871;BME280;46714;50.118;14.462;2023-11-19T02:50:41;98881.06;;;2.77;100.00
60871;BME280;46714;50.118;14.462;2023-11-19T02:53:07;98873.69;;;2.79;100.00
60871;BME280;46714;50.118;14.462;2023-11-19T02:55:32;98876.34;;;2.79;100.00
60871;BME280;46714;50.118;14.462;2023-11-19T02:58:02;98861.25;;;2.78;100.00
60871;BME280;46714;50.118;14.462;2023-11-19T03:00:34;98862.91;;;2.79;100.00
60871;BME280;46714;50.118;14.462;2023-11-19T03:03:01;98861.75;;;2.82;100.00
60871;BME280;46714;50.118;14.462;2023-11-19T03:05:49;98858.22;;;2.81;100.00
60871;BME280;46714;50.118;14.462;2023-11-19T03:08:15;98855.53;;;2.81;100.00
60871;BME280;46714;50.118;14.462;2023-11-19T03:10:41;98845.59;;;2.82;100.00
60871;BME280;46714;50.118;14.462;2023-11-19T03:13:09;98830.34;;;2.82;100.00
60871;BME280;46714;50.118;14.462;2023-11-19T03:15:38;98829.47;;;2.82;100.00
60871;BME280;46714;50.118;14.462;2023-11-19T03:18:04;98820.78;;;2.80;100.00
60871;BME280;46714;50.118;14.462;2023-11-19T03:20:29;98821.94;;;2.77;100.00
60871;BME280;46714;50.118;14.462;2023-11-19T03:22:55;98813.88;;;2.77;100.00
60871;BME280;46714;50.118;14.462;2023-11-19T03:25:22;98811.38;;;2.76;100.00
60871;BME280;46714;50.118;14.462;2023-11-19T03:27:52;98804.50;;;2.73;100.00
60871;BME280;46714;50.118;14.462;2023-11-19T03:30:18;98800.78;;;2.74;100.00
60871;BME280;46714;50.118;14.462;2023-11-19T03:32:43;98792.06;;;2.72;100.00
60871;BME280;46714;50.118;14.462;2023-11-19T03:35:09;98793.09;;;2.71;100.00
60871;BME280;46714;50.118;14.462;2023-11-19T03:37:34;98804.50;;;2.73;100.00
60871;BME280;46714;50.118;14.462;2023-11-19T03:40:00;98792.91;;;2.72;100.00
60871;BME280;46714;50.118;14.462;2023-11-19T03:42:26;98784.50;;;2.76;100.00
60871;BME280;46714;50.118;14.462;2023-11-19T03:44:52;98775.41;;;2.77;100.00
60871;BME280;46714;50.118;14.462;2023-11-19T03:47:19;98771.25;;;2.74;100.00
60871;BME280;46714;50.118;14.462;2023-11-19T03:49:48;98774.59;;;2.76;100.00
60871;BME280;46714;50.118;14.462;2023-11-19T03:52:14;98769.06;;;2.78;100.00
60871;BME280;46714;50.118;14.462;2023-11-19T03:54:39;98758.09;;;2.79;100.00
60871;BME280;46714;50.118;14.462;2023-11-19T03:57:04;98754.41;;;2.80;100.00
60871;BME280;46714;50.118;14.462;2023-11-19T03:59:30;98758.97;;;2.80;100.00
60871;BME280;46714;50.118;14.462;2023-11-19T04:01:55;98758.78;;;2.81;100.00
60871;BME280;46714;50.118;14.462;2023-11-19T04:04:21;98758.44;;;2.84;100.00
60871;BME280;46714;50.118;14.462;2023-11-19T04:06:47;98757.41;;;2.85;100.00
60871;BME280;46714;50.118;14.462;2023-11-19T04:09:12;98753.06;;;2.84;100.00
60871;BME280;46714;50.118;14.462;2023-11-19T04:11:37;98738.59;;;2.85;100.00
60871;BME280;46714;50.118;14.462;2023-11-19T04:14:04;98727.34;;;2.82;100.00
60871;BME280;46714;50.118;14.462;2023-11-19T04:16:29;98728.22;;;2.82;100.00
60871;BME280;46714;50.118;14.462;2023-11-19T04:18:55;98728.53;;;2.79;100.00
60871;BME280;46714;50.118;14.462;2023-11-19T04:21:20;98718.16;;;2.76;100.00
60871;BME280;46714;50.118;14.462;2023-11-19T04:23:45;98713.44;;;2.78;100.00
60871;BME280;46714;50.118;14.462;2023-11-19T04:26:11;98715.97;;;2.80;100.00
60871;BME280;46714;50.118;14.462;2023-11-19T04:28:36;98704.34;;;2.79;100.00
60871;BME280;46714;50.118;14.462;2023-11-19T04:31:01;98702.53;;;2.80;100.00
60871;BME280;46714;50.118;14.462;2023-11-19T04:33:28;98697.31;;;2.78;100.00
60871;BME280;46714;50.118;14.462;2023-11-19T04:35:53;98686.06;;;2.75;100.00
60871;BME280;46714;50.118;14.462;2023-11-19T04:38:19;98686.06;;;2.75;100.00
60871;BME280;46714;50.118;14.462;2023-11-19T04:40:44;98685.25;;;2.74;100.00
60871;BME280;46714;50.118;14.462;2023-11-19T04:43:09;98674.50;;;2.74;100.00
60871;BME280;46714;50.118;14.462;2023-11-19T04:45:35;98668.44;;;2.72;100.00
60871;BME280;46714;50.118;14.462;2023-11-19T04:48:00;98669.66;;;2.69;100.00
60871;BME280;46714;50.118;14.462;2023-11-19T04:50:26;98670.84;;;2.67;100.00
60871;BME280;46714;50.118;14.462;2023-11-19T04:52:52;98654.06;;;2.65;100.00
60871;BME280;46714;50.118;14.462;2023-11-19T04:55:19;98646.00;;;2.65;100.00
60871;BME280;46714;50.118;14.462;2023-11-19T04:57:44;98628.22;;;2.64;100.00
60871;BME280;46714;50.118;14.462;2023-11-19T05:00:10;98624.50;;;2.65;100.00
60871;BME280;46714;50.118;14.462;2023-11-19T05:02:36;98622.63;;;2.65;100.00
60871;BME280;46714;50.118;14.462;2023-11-19T05:05:02;98618.97;;;2.66;100.00
60871;BME280;46714;50.118;14.462;2023-11-19T05:07:29;98612.56;;;2.67;100.00
60871;BME280;46714;50.118;14.462;2023-11-19T05:09:55;98610.41;;;2.63;100.00
60871;BME280;46714;50.118;14.462;2023-11-19T05:12:20;98605.84;;;2.63;100.00
60871;BME280;46714;50.118;14.462;2023-11-19T05:14:46;98603.38;;;2.62;100.00
60871;BME280;46714;50.118;14.462;2023-11-19T05:17:15;98601.69;;;2.61;100.00
60871;BME280;46714;50.118;14.462;2023-11-19T05:19:40;98610.59;;;2.61;100.00
60871;BME280;46714;50.118;14.462;2023-11-19T05:22:06;98613.75;;;2.65;100.00
60871;BME280;46714;50.118;14.462;2023-11-19T05:24:32;98616.28;;;2.66;100.00
60871;BME280;46714;50.118;14.462;2023-11-19T05:26:58;98614.56;;;2.65;100.00
60871;BME280;46714;50.118;14.462;2023-11-19T05:29:23;98599.94;;;2.68;100.00
60871;BME280;46714;50.118;14.462;2023-11-19T05:31:49;98592.38;;;2.71;100.00
60871;BME280;46714;50.118;14.462;2023-11-19T05:34:14;98589.84;;;2.70;100.00
60871;BME280;46714;50.118;14.462;2023-11-19T05:36:40;98573.75;;;2.70;100.00
60871;BME280;46714;50.118;14.462;2023-11-19T05:39:05;98569.03;;;2.72;100.00
60871;BME280;46714;50.118;14.462;2023-11-19T05:41:31;98560.78;;;2.73;100.00
60871;BME280;46714;50.118;14.462;2023-11-19T05:43:56;98559.75;;;2.75;100.00
60871;BME280;46714;50.118;14.462;2023-11-19T05:46:21;98566.81;;;2.76;100.00
60871;BME280;46714;50.118;14.462;2023-11-19T05:48:47;98563.09;;;2.77;100.00
60871;BME280;46714;50.118;14.462;2023-11-19T05:51:13;98552.34;;;2.77;100.00
60871;BME280;46714;50.118;14.462;2023-11-19T05:53:40;98554.22;;;2.76;100.00
60871;BME280;46714;50.118;14.462;2023-11-19T05:56:06;98552.34;;;2.77;100.00
60871;BME280;46714;50.118;14.462;2023-11-19T05:58:34;98551.53;;;2.76;100.00
60871;BME280;46714;50.118;14.462;2023-11-19T06:01:01;98546.00;;;2.78;100.00
60871;BME280;46714;50.118;14.462;2023-11-19T06:03:27;98537.94;;;2.78;100.00
60871;BME280;46714;50.118;14.462;2023-11-19T06:05:53;98538.75;;;2.78;100.00
60871;BME280;46714;50.118;14.462;2023-11-19T06:08:19;98536.06;;;2.78;100.00
60871;BME280;46714;50.118;14.462;2023-11-19T06:10:45;98527.50;;;2.75;100.00
60871;BME280;46714;50.118;14.462;2023-11-19T06:13:13;98529.38;;;2.74;100.00
60871;BME280;46714;50.118;14.462;2023-11-19T06:15:41;98524.66;;;2.76;100.00
60871;BME280;46714;50.118;14.462;2023-11-19T06:18:09;98535.03;;;2.79;100.00
60871;BME280;46714;50.118;14.462;2023-11-19T06:20:36;98543.75;;;2.81;100.00
60871;BME280;46714;50.118;14.462;2023-11-19T06:23:02;98543.75;;;2.81;100.00
60871;BME280;46714;50.118;14.462;2023-11-19T06:25:27;98536.34;;;2.83;100.00
60871;BME280;46714;50.118;14.462;2023-11-19T06:27:53;98514.03;;;2.83;100.00
60871;BME280;46714;50.118;14.462;2023-11-19T06:30:18;98506.78;;;2.83;100.00
60871;BME280;46714;50.118;14.462;2023-11-19T06:32:44;98507.44;;;2.85;100.00
60871;BME280;46714;50.118;14.462;2023-11-19T06:35:10;98517.00;;;2.88;100.00
60871;BME280;46714;50.118;14.462;2023-11-19T06:37:38;98532.28;;;2.87;100.00
60871;BME280;46714;50.118;14.462;2023-11-19T06:40:04;98531.25;;;2.88;100.00
60871;BME280;46714;50.118;14.462;2023-11-19T06:42:30;98509.59;;;2.90;100.00
60871;BME280;46714;50.118;14.462;2023-11-19T06:44:56;98513.75;;;2.92;100.00
60871;BME280;46714;50.118;14.462;2023-11-19T06:47:22;98518.97;;;2.94;100.00
60871;BME280;46714;50.118;14.462;2023-11-19T06:49:52;98518.97;;;2.94;100.00
60871;BME280;46714;50.118;14.462;2023-11-19T06:52:17;98523.31;;;2.95;100.00
60871;BME280;46714;50.118;14.462;2023-11-19T06:54:43;98518.41;;;2.99;100.00
60871;BME280;46714;50.118;14.462;2023-11-19T06:57:08;98504.81;;;3.00;100.00
60871;BME280;46714;50.118;14.462;2023-11-19T06:59:34;98508.13;;;3.02;100.00
60871;BME280;46714;50.118;14.462;2023-11-19T07:01:59;98507.56;;;3.07;100.00
60871;BME280;46714;50.118;14.462;2023-11-19T07:04:25;98501.19;;;3.08;100.00
60871;BME280;46714;50.118;14.462;2023-11-19T07:06:50;98505.75;;;3.07;100.00
60871;BME280;46714;50.118;14.462;2023-11-19T07:09:17;98505.53;;;3.09;100.00
60871;BME280;46714;50.118;14.462;2023-11-19T07:11:43;98509.91;;;3.10;100.00
60871;BME280;46714;50.118;14.462;2023-11-19T07:14:10;98500.81;;;3.11;100.00
60871;BME280;46714;50.118;14.462;2023-11-19T07:16:36;98503.16;;;3.14;100.00
60871;BME280;46714;50.118;14.462;2023-11-19T07:19:02;98514.25;;;3.11;100.00
60871;BME280;46714;50.118;14.462;2023-11-19T07:21:28;98516.94;;;3.11;100.00
60871;BME280;46714;50.118;14.462;2023-11-19T07:23:57;98520.66;;;3.10;100.00
60871;BME280;46714;50.118;14.462;2023-11-19T07:26:22;98508.06;;;3.10;100.00
60871;BME280;46714;50.118;14.462;2023-11-19T07:28:48;98502.50;;;3.12;100.00
60871;BME280;46714;50.118;14.462;2023-11-19T07:31:14;98494.59;;;3.10;100.00
60871;BME280;46714;50.118;14.462;2023-11-19T07:33:40;98495.44;;;3.11;100.00
60871;BME280;46714;50.118;14.462;2023-11-19T07:36:09;98493.22;;;3.14;100.00
60871;BME280;46714;50.118;14.462;2023-11-19T07:38:35;98508.16;;;3.17;100.00
60871;BME280;46714;50.118;14.462;2023-11-19T07:41:01;98498.88;;;3.20;100.00
60871;BME280;46714;50.118;14.462;2023-11-19T07:43:26;98494.34;;;3.20;100.00
60871;BME280;46714;50.118;14.462;2023-11-19T07:45:52;98502.59;;;3.19;100.00
60871;BME280;46714;50.118;14.462;2023-11-19T07:48:17;98505.28;;;3.19;100.00
60871;BME280;46714;50.118;14.462;2023-11-19T07:50:47;98502.59;;;3.19;100.00
60871;BME280;46714;50.118;14.462;2023-11-19T07:53:15;98511.78;;;3.24;100.00
60871;BME280;46714;50.118;14.462;2023-11-19T07:55:41;98502.72;;;3.25;100.00
60871;BME280;46714;50.118;14.462;2023-11-19T07:58:06;98506.03;;;3.27;100.00
60871;BME280;46714;50.118;14.462;2023-11-19T08:00:31;98498.59;;;3.29;100.00
60871;BME280;46714;50.118;14.462;2023-11-19T08:02:57;98487.00;;;3.29;100.00
60871;BME280;46714;50.118;14.462;2023-11-19T08:05:22;98503.97;;;3.29;100.00
60871;BME280;46714;50.118;14.462;2023-11-19T08:07:49;98503.81;;;3.31;100.00
60871;BME280;46714;50.118;14.462;2023-11-19T08:10:15;98497.41;;;3.32;100.00
60871;BME280;46714;50.118;14.462;2023-11-19T08:12:40;98494.16;;;3.36;100.00
60871;BME280;46714;50.118;14.462;2023-11-19T08:15:06;98491.75;;;3.42;100.00
60871;BME280;46714;50.118;14.462;2023-11-19T08:17:32;98485.19;;;3.44;100.00
60871;BME280;46714;50.118;14.462;2023-11-19T08:19:57;98485.81;;;3.46;100.00
60871;BME280;46714;50.118;14.462;2023-11-19T08:22:25;98488.13;;;3.49;100.00
60871;BME280;46714;50.118;14.462;2023-11-19T08:24:50;98478.19;;;3.50;100.00
60871;BME280;46714;50.118;14.462;2023-11-19T08:27:16;98464.09;;;3.48;100.00
60871;BME280;46714;50.118;14.462;2023-11-19T08:29:41;98455.66;;;3.51;100.00
60871;BME280;46714;50.118;14.462;2023-11-19T08:32:06;98460.00;;;3.52;100.00
60871;BME280;46714;50.118;14.462;2023-11-19T08:34:32;98464.00;;;3.56;100.00
60871;BME280;46714;50.118;14.462;2023-11-19T08:36:57;98459.28;;;3.58;100.00
60871;BME280;46714;50.118;14.462;2023-11-19T08:39:23;98448.13;;;3.61;100.00
60871;BME280;46714;50.118;14.462;2023-11-19T08:41:49;98453.97;;;3.65;100.00
60871;BME280;46714;50.118;14.462;2023-11-19T08:44:15;98462.50;;;3.68;100.00
60871;BME280;46714;50.118;14.462;2023-11-19T08:46:50;98468.34;;;3.72;100.00
60871;BME280;46714;50.118;14.462;2023-11-19T08:49:15;98473.34;;;3.75;100.00
60871;BME280;46714;50.118;14.462;2023-11-19T08:51:40;98472.34;;;3.76;100.00
60871;BME280;46714;50.118;14.462;2023-11-19T08:54:06;98468.44;;;3.78;100.00
60871;BME280;46714;50.118;14.462;2023-11-19T08:56:32;98464.72;;;3.80;100.00
60871;BME280;46714;50.118;14.462;2023-11-19T08:58:59;98466.00;;;3.84;100.00
60871;BME280;46714;50.118;14.462;2023-11-19T09:01:25;98464.97;;;3.85;100.00
60871;BME280;46714;50.118;14.462;2023-11-19T09:03:50;98467.31;;;3.88;100.00
60871;BME280;46714;50.118;14.462;2023-11-19T09:06:16;98474.59;;;3.94;100.00
60871;BME280;46714;50.118;14.462;2023-11-19T09:08:44;98473.19;;;3.98;100.00
60871;BME280;46714;50.118;14.462;2023-11-19T09:11:10;98467.25;;;4.03;100.00
60871;BME280;46714;50.118;14.462;2023-11-19T09:13:35;98475.41;;;4.09;100.00
60871;BME280;46714;50.118;14.462;2023-11-19T09:16:01;98464.72;;;4.16;100.00
60871;BME280;46714;50.118;14.462;2023-11-19T09:18:28;98463.13;;;4.22;100.00
60871;BME280;46714;50.118;14.462;2023-11-19T09:20:54;98459.47;;;4.29;100.00
60871;BME280;46714;50.118;14.462;2023-11-19T09:23:20;98459.53;;;4.36;100.00
60871;BME280;46714;50.118;14.462;2023-11-19T09:25:45;98460.44;;;4.43;100.00
60871;BME280;46714;50.118;14.462;2023-11-19T09:28:10;98454.06;;;4.51;100.00
60871;BME280;46714;50.118;14.462;2023-11-19T09:30:36;98438.59;;;4.59;100.00
60871;BME280;46714;50.118;14.462;2023-11-19T09:33:01;98442.00;;;4.68;100.00
60871;BME280;46714;50.118;14.462;2023-11-19T09:35:27;98440.19;;;4.75;100.00
60871;BME280;46714;50.118;14.462;2023-11-19T09:37:52;98446.91;;;4.86;100.00
60871;BME280;46714;50.118;14.462;2023-11-19T09:40:18;98438.66;;;4.94;100.00
60871;BME280;46714;50.118;14.462;2023-11-19T09:42:44;98439.28;;;4.96;100.00
60871;BME280;46714;50.118;14.462;2023-11-19T09:45:13;98448.47;;;5.02;100.00
60871;BME280;46714;50.118;14.462;2023-11-19T09:47:44;98445.81;;;5.09;100.00
60871;BME280;46714;50.118;14.462;2023-11-19T09:50:14;98452.09;;;5.16;100.00
60871;BME280;46714;50.118;14.462;2023-11-19T09:52:43;98446.75;;;5.22;100.00
60871;BME280;46714;50.118;14.462;2023-11-19T09:55:09;98439.84;;;5.20;100.00
60871;BME280;46714;50.118;14.462;2023-11-19T09:57:34;98435.50;;;5.19;100.00
60871;BME280;46714;50.118;14.462;2023-11-19T10:00:03;98438.19;;;5.19;100.00
60871;BME280;46714;50.118;14.462;2023-11-19T10:02:30;98430.09;;;5.19;100.00
60871;BME280;46714;50.118;14.462;2023-11-19T10:04:58;98424.72;;;5.19;100.00
60871;BME280;46714;50.118;14.462;2023-11-19T10:07:27;98422.00;;;5.19;100.00
60871;BME280;46714;50.118;14.462;2023-11-19T10:09:53;98418.69;;;5.17;100.00
60871;BME280;46714;50.118;14.462;2023-11-19T10:12:18;98412.69;;;5.21;100.00
60871;BME280;46714;50.118;14.462;2023-11-19T10:14:44;98422.88;;;5.26;100.00
60871;BME280;46714;50.118;14.462;2023-11-19T10:17:11;98411.50;;;5.31;100.00
60871;BME280;46714;50.118;14.462;2023-11-19T10:19:36;98404.06;;;5.39;100.00
60871;BME280;46714;50.118;14.462;2023-11-19T10:22:05;98407.03;;;5.51;100.00
60871;BME280;46714;50.118;14.462;2023-11-19T10:24:33;98405.41;;;5.63;100.00
60871;BME280;46714;50.118;14.462;2023-11-19T10:26:59;98392.16;;;5.75;100.00
60871;BME280;46714;50.118;14.462;2023-11-19T10:29:28;98390.75;;;5.93;100.00
60871;BME280;46714;50.118;14.462;2023-11-19T10:31:57;98386.03;;;6.08;100.00
60871;BME280;46714;50.118;14.462;2023-11-19T10:34:24;98381.69;;;6.20;100.00
60871;BME280;46714;50.118;14.462;2023-11-19T10:36:51;98377.97;;;6.35;100.00
60871;BME280;46714;50.118;14.462;2023-11-19T10:39:16;98367.56;;;6.45;100.00
60871;BME280;46714;50.118;14.462;2023-11-19T10:41:43;98367.16;;;6.55;100.00
60871;BME280;46714;50.118;14.462;2023-11-19T10:44:08;98363.63;;;6.67;100.00
60871;BME280;46714;50.118;14.462;2023-11-19T10:46:41;98368.59;;;6.77;100.00
60871;BME280;46714;50.118;14.462;2023-11-19T10:49:08;98360.47;;;6.90;100.00
60871;BME280;46714;50.118;14.462;2023-11-19T10:51:35;98358.38;;;6.99;100.00
60871;BME280;46714;50.118;14.462;2023-11-19T10:54:04;98369.56;;;7.09;100.00
60871;BME280;46714;50.118;14.462;2023-11-19T10:56:31;98366.41;;;7.26;100.00
60871;BME280;46714;50.118;14.462;2023-11-19T10:58:58;98366.78;;;7.43;100.00
60871;BME280;46714;50.118;14.462;2023-11-19T11:01:26;98365.00;;;7.62;100.00
60871;BME280;46714;50.118;14.462;2023-11-19T11:03:59;98358.69;;;7.81;100.00
60871;BME280;46714;50.118;14.462;2023-11-19T11:06:26;98360.88;;;7.97;100.00
60871;BME280;46714;50.118;14.462;2023-11-19T11:08:52;98352.41;;;8.12;100.00
60871;BME280;46714;50.118;14.462;2023-11-19T11:11:19;98357.34;;;8.22;100.00
60871;BME280;46714;50.118;14.462;2023-11-19T11:13:49;98346.25;;;8.30;100.00
60871;BME280;46714;50.118;14.462;2023-11-19T11:16:18;98349.72;;;8.44;100.00
60871;BME280;46714;50.118;14.462;2023-11-19T11:18:44;98345.00;;;8.58;100.00
60871;BME280;46714;50.118;14.462;2023-11-19T11:21:15;98341.41;;;8.64;100.00
60871;BME280;46714;50.118;14.462;2023-11-19T11:24:09;98333.44;;;8.69;100.00
60871;BME280;46714;50.118;14.462;2023-11-19T11:29:49;98332.09;;;8.78;100.00
60871;BME280;46714;50.118;14.462;2023-11-19T11:38:14;98337.47;;;9.04;100.00
60871;BME280;46714;50.118;14.462;2023-11-19T11:41:03;98348.13;;;9.05;100.00
60871;BME280;46714;50.118;14.462;2023-11-19T11:43:43;98345.63;;;9.04;100.00
60871;BME280;46714;50.118;14.462;2023-11-19T11:49:04;98346.59;;;9.09;100.00
60871;BME280;46714;50.118;14.462;2023-11-19T11:59:52;98343.88;;;9.28;100.00
60871;BME280;46714;50.118;14.462;2023-11-19T12:02:20;98342.97;;;9.34;100.00
60871;BME280;46714;50.118;14.462;2023-11-19T12:04:50;98341.00;;;9.41;100.00
60871;BME280;46714;50.118;14.462;2023-11-19T12:07:18;98331.94;;;9.47;100.00
60871;BME280;46714;50.118;14.462;2023-11-19T12:10:28;98340.25;;;9.52;100.00
60871;BME280;46714;50.118;14.462;2023-11-19T12:12:38;98335.19;;;9.56;100.00
60871;BME280;46714;50.118;14.462;2023-11-19T12:19:57;98320.78;;;9.55;100.00
60871;BME280;46714;50.118;14.462;2023-11-19T12:22:39;98318.66;;;9.57;100.00
60871;BME280;46714;50.118;14.462;2023-11-19T12:25:12;98314.41;;;9.61;100.00
60871;BME280;46714;50.118;14.462;2023-11-19T12:27:45;98318.13;;;9.67;100.00
60871;BME280;46714;50.118;14.462;2023-11-19T12:30:20;98316.34;;;9.73;100.00
60871;BME280;46714;50.118;14.462;2023-11-19T12:32:47;98314.25;;;9.75;100.00
60871;BME280;46714;50.118;14.462;2023-11-19T12:35:14;98313.41;;;9.74;100.00
60871;BME280;46714;50.118;14.462;2023-11-19T12:37:43;98304.44;;;9.74;100.00
60871;BME280;46714;50.118;14.462;2023-11-19T12:40:11;98303.03;;;9.71;100.00
60871;BME280;46714;50.118;14.462;2023-11-19T12:42:38;98304.28;;;9.69;100.00
60871;BME280;46714;50.118;14.462;2023-11-19T12:45:04;98296.38;;;9.67;100.00
60871;BME280;46714;50.118;14.462;2023-11-19T12:47:30;98287.38;;;9.67;100.00
60871;BME280;46714;50.118;14.462;2023-11-19T12:49:56;98285.72;;;9.65;100.00
60871;BME280;46714;50.118;14.462;2023-11-19T12:52:22;98286.81;;;9.64;100.00
60871;BME280;46714;50.118;14.462;2023-11-19T12:54:48;98287.25;;;9.61;100.00
60871;BME280;46714;50.118;14.462;2023-11-19T12:57:14;98287.94;;;9.57;100.00
60871;BME280;46714;50.118;14.462;2023-11-19T12:59:40;98288.31;;;9.60;100.00
60871;BME280;46714;50.118;14.462;2023-11-19T13:02:05;98297.91;;;9.63;100.00
60871;BME280;46714;50.118;14.462;2023-11-19T13:04:31;98284.66;;;9.67;100.00
60871;BME280;46714;50.118;14.462;2023-11-19T13:06:58;98293.41;;;9.69;100.00
60871;BME280;46714;50.118;14.462;2023-11-19T13:09:25;98286.03;;;9.76;100.00
60871;BME280;46714;50.118;14.462;2023-11-19T13:11:51;98278.81;;;9.81;100.00
60871;BME280;46714;50.118;14.462;2023-11-19T13:14:17;98279.75;;;9.87;100.00
60871;BME280;46714;50.118;14.462;2023-11-19T13:16:44;98274.09;;;9.89;100.00